Time;durP1;ratioP1;P1;durP2;ratioP2;P2;SDS_P1;SDS_P2;PMS_P1;PMS_P2;Temp;Humidity;BMP_temperature;BMP_pressure;BME280_temperature;BME280_humidity;BME280_pressure;Samples;Min_cycle;Max_cycle;Signal;HPM_P1;HPM_P2
2022/02/08 00:00:17;;;;;;;6.43;1.63;;;1.20;99.90;;;;;;5053643;28;20526;-83
2022/02/08 00:02:48;;;;;;;7.88;2.05;;;1.20;99.90;;;;;;5052392;28;20393;-82
2022/02/08 00:05:15;;;;;;;10.63;1.90;;;1.30;99.90;;;;;;5053697;28;20021;-82
2022/02/08 00:07:45;;;;;;;9.25;2.08;;;1.30;99.90;;;;;;5051646;28;20040;-78
2022/02/08 00:10:11;;;;;;;;;;;1.20;99.90;;;;;;5053773;28;20040;-83
2022/02/08 00:12:37;;;;;;;12.90;2.65;;;1.20;99.90;;;;;;5053311;28;19909;-75
2022/02/08 00:15:03;;;;;;;8.55;1.98;;;1.10;99.90;;;;;;5052139;28;20029;-76
2022/02/08 00:17:29;;;;;;;9.95;1.80;;;1.10;99.90;;;;;;5054627;28;20029;-78
2022/02/08 00:19:54;;;;;;;11.73;1.58;;;1.10;99.90;;;;;;5051156;28;20032;-84
2022/02/08 00:22:20;;;;;;;10.70;2.28;;;1.10;99.90;;;;;;5051137;28;20044;-82
2022/02/08 00:24:45;;;;;;;12.20;1.90;;;1.10;99.90;;;;;;5051269;28;20028;-82
2022/02/08 00:27:11;;;;;;;12.05;2.30;;;1.10;99.90;;;;;;5051837;28;20053;-81
2022/02/08 00:29:37;;;;;;;6.93;1.58;;;1.10;99.90;;;;;;5051337;28;20040;-74
2022/02/08 00:32:04;;;;;;;11.18;2.00;;;1.10;99.90;;;;;;5051055;28;20029;-82
2022/02/08 00:34:30;;;;;;;7.97;1.83;;;1.10;99.90;;;;;;5052194;28;20036;-82
2022/02/08 00:36:55;;;;;;;8.38;2.40;;;1.20;99.90;;;;;;5050845;28;20377;-83
2022/02/08 00:39:23;;;;;;;9.88;1.88;;;1.20;99.90;;;;;;5050457;28;20044;-83
2022/02/08 00:41:48;;;;;;;16.27;3.67;;;1.20;99.90;;;;;;5050653;28;20033;-82
2022/02/08 00:44:22;;;;;;;8.73;1.95;;;1.30;99.90;;;;;;5051496;28;20027;-82
2022/02/08 00:47:11;;;;;;;7.95;1.80;;;1.30;99.90;;;;;;5050978;28;20512;-81
2022/02/08 00:49:39;;;;;;;6.90;2.22;;;1.30;99.90;;;;;;5049494;28;20078;-82
2022/02/08 00:52:10;;;;;;;6.18;1.75;;;1.40;99.90;;;;;;5051416;28;20037;-81
2022/02/08 00:54:36;;;;;;;7.95;2.03;;;1.50;99.90;;;;;;5054612;28;20036;-82
2022/02/08 00:57:02;;;;;;;8.40;1.70;;;1.50;99.90;;;;;;5058218;28;20048;-81
2022/02/08 00:59:28;;;;;;;9.57;1.60;;;1.50;99.90;;;;;;5051383;28;20488;-81
2022/02/08 01:01:54;;;;;;;8.02;1.63;;;1.60;99.90;;;;;;5050344;28;20045;-81
2022/02/08 01:04:19;;;;;;;9.75;1.85;;;1.70;99.90;;;;;;5051274;28;20371;-78
2022/02/08 01:06:47;;;;;;;6.88;1.50;;;1.80;99.90;;;;;;5050715;28;20454;-82
2022/02/08 01:09:17;;;;;;;11.32;1.80;;;1.80;99.90;;;;;;5051354;28;20025;-82
2022/02/08 01:11:45;;;;;;;8.77;1.73;;;1.80;99.90;;;;;;5049933;28;20071;-82
2022/02/08 01:14:11;;;;;;;7.65;1.77;;;1.80;99.90;;;;;;5049341;28;20033;-83
2022/02/08 01:16:36;;;;;;;5.82;1.40;;;1.80;99.90;;;;;;5053988;28;20033;-84
2022/02/08 01:19:04;;;;;;;12.75;2.08;;;1.80;99.90;;;;;;5051586;28;20102;-82
2022/02/08 01:21:31;;;;;;;7.68;2.08;;;1.80;99.90;;;;;;5052048;28;20035;-83
2022/02/08 01:23:58;;;;;;;6.72;1.48;;;1.80;99.90;;;;;;5051247;28;20458;-85
2022/02/08 01:26:23;;;;;;;9.55;1.75;;;1.90;99.90;;;;;;5052455;28;20492;-84
2022/02/08 01:29:02;;;;;;;6.63;1.58;;;1.90;99.90;;;;;;5051500;28;20060;-84
2022/02/08 01:31:29;;;;;;;8.10;1.30;;;1.90;99.90;;;;;;5052262;28;20036;-83
2022/02/08 01:34:12;;;;;;;9.07;1.67;;;1.90;99.90;;;;;;5051593;28;20037;-83
2022/02/08 01:36:54;;;;;;;5.35;1.60;;;1.90;99.90;;;;;;5052319;28;20513;-83
2022/02/08 01:39:32;;;;;;;6.13;1.38;;;1.90;99.90;;;;;;5051891;28;20499;-84
2022/02/08 01:47:19;;;;;;;7.68;1.45;;;1.90;99.90;;;;;;5066673;28;20053;-82
2022/02/08 01:52:22;;;;;;;6.38;1.50;;;2.00;99.90;;;;;;5051785;28;20037;-84
2022/02/08 01:54:48;;;;;;;8.13;1.30;;;2.10;99.90;;;;;;5051047;28;20535;-83
2022/02/08 01:57:13;;;;;;;9.52;1.60;;;2.10;99.90;;;;;;5051399;28;20057;-81
2022/02/08 01:59:39;;;;;;;10.45;1.00;;;2.30;99.90;;;;;;5051490;28;20115;-74
2022/02/08 02:02:05;;;;;;;7.45;1.50;;;2.40;99.90;;;;;;5051032;28;20390;-82
2022/02/08 02:04:31;;;;;;;8.50;1.40;;;2.40;99.90;;;;;;5051634;28;20108;-82
2022/02/08 02:07:00;;;;;;;6.50;1.48;;;2.50;99.90;;;;;;5050634;28;20073;-83
2022/02/08 02:09:25;;;;;;;7.47;1.27;;;2.50;99.90;;;;;;5051757;28;20363;-82
2022/02/08 02:11:56;;;;;;;9.45;1.55;;;2.50;99.90;;;;;;5050513;28;20033;-83
2022/02/08 02:14:22;;;;;;;;;;;2.50;99.90;;;;;;5052040;28;20032;-83
2022/02/08 02:16:56;;;;;;;5.53;1.38;;;2.50;99.90;;;;;;5050543;28;19963;-83
2022/02/08 02:19:25;;;;;;;5.93;1.52;;;2.40;99.90;;;;;;5051733;28;20036;-83
2022/02/08 02:21:51;;;;;;;11.40;2.13;;;2.50;99.90;;;;;;5050955;28;20103;-83
2022/02/08 02:24:16;;;;;;;4.80;1.10;;;2.50;99.90;;;;;;5051387;28;20033;-83
2022/02/08 02:26:42;;;;;;;6.28;1.23;;;2.60;99.90;;;;;;5055095;28;20037;-74
2022/02/08 02:29:08;;;;;;;7.93;1.27;;;2.70;99.90;;;;;;5055107;28;20463;-83
2022/02/08 02:31:34;;;;;;;9.10;1.65;;;2.70;99.90;;;;;;5055691;28;20107;-83
2022/02/08 02:34:00;;;;;;;6.15;1.50;;;2.80;99.90;;;;;;5054515;28;20104;-83
2022/02/08 02:36:26;;;;;;;6.88;1.15;;;2.70;99.90;;;;;;5055294;28;20021;-83
2022/02/08 02:38:51;;;;;;;5.88;1.35;;;2.80;99.90;;;;;;5054284;28;20068;-83
2022/02/08 02:41:17;;;;;;;5.00;1.40;;;2.80;99.90;;;;;;5055507;28;20103;-83
2022/02/08 02:43:45;;;;;;;6.78;1.38;;;2.90;99.90;;;;;;5055292;28;20115;-75
2022/02/08 02:46:11;;;;;;;6.03;1.38;;;2.90;99.90;;;;;;5064628;28;20115;-82
2022/02/08 02:48:36;;;;;;;8.02;1.75;;;2.90;99.90;;;;;;5058105;28;20100;-82
2022/02/08 02:51:02;;;;;;;5.22;1.25;;;2.90;99.90;;;;;;5059751;28;20036;-81
2022/02/08 02:53:28;;;;;;;6.90;1.15;;;2.90;99.90;;;;;;5055017;28;20075;-84
2022/02/08 02:55:54;;;;;;;5.45;1.23;;;2.90;99.90;;;;;;5054228;28;20375;-81
2022/02/08 02:58:21;;;;;;;7.78;1.50;;;2.90;99.90;;;;;;5055168;28;20060;-81
2022/02/08 03:01:06;;;;;;;6.90;1.27;;;2.90;99.90;;;;;;5053891;28;20029;-81
2022/02/08 03:19:55;;;;;;;9.18;1.45;;;3.10;99.90;;;;;;5065402;28;20067;-82
2022/02/08 03:22:20;;;;;;;13.50;2.00;;;3.10;99.90;;;;;;5054243;28;20390;-83
2022/02/08 03:24:46;;;;;;;7.63;1.42;;;3.20;99.90;;;;;;5053513;28;20029;-75
2022/02/08 03:27:11;;;;;;;8.38;1.70;;;3.10;99.90;;;;;;5054322;28;20029;-82
2022/02/08 03:29:37;;;;;;;5.35;1.20;;;3.10;99.90;;;;;;5054139;28;20028;-82
2022/02/08 03:32:03;;;;;;;12.93;1.67;;;3.10;99.90;;;;;;5053457;28;20823;-83
2022/02/08 03:34:29;;;;;;;8.05;1.73;;;3.10;99.90;;;;;;5054286;28;20036;-83
2022/02/08 03:36:54;;;;;;;12.55;1.73;;;3.20;99.90;;;;;;5052348;28;20398;-81
2022/02/08 03:39:22;;;;;;;14.27;3.75;;;3.20;99.90;;;;;;5054244;28;20029;-81
2022/02/08 03:41:53;;;;;;;10.65;1.60;;;3.30;99.90;;;;;;5053375;28;20028;-82
2022/02/08 03:44:28;;;;;;;8.65;1.50;;;3.20;99.90;;;;;;5057463;28;20082;-82
2022/02/08 03:46:54;;;;;;;9.20;1.38;;;3.10;99.90;;;;;;5068098;28;20036;-83
2022/02/08 03:49:20;;;;;;;11.60;1.50;;;3.10;99.90;;;;;;5054059;28;20104;-83
2022/02/08 03:51:57;;;;;;;10.48;1.75;;;3.00;99.90;;;;;;5053401;28;20100;-73
2022/02/08 03:54:23;;;;;;;12.77;1.38;;;3.00;99.90;;;;;;5054024;28;20079;-82
2022/02/08 03:56:48;;;;;;;11.68;1.58;;;2.90;99.90;;;;;;5052222;28;20045;-81
2022/02/08 03:59:15;;;;;;;7.15;1.73;;;2.80;99.90;;;;;;5053767;28;20028;-81
2022/02/08 04:06:42;;;;;;;8.40;1.63;;;2.70;99.90;;;;;;5053527;28;20496;-81
2022/02/08 04:09:09;;;;;;;7.57;1.30;;;2.70;99.90;;;;;;5052542;28;20040;-81
2022/02/08 04:11:39;;;;;;;18.10;1.70;;;2.80;99.90;;;;;;5053602;28;20111;-81
2022/02/08 04:14:26;;;;;;;10.98;1.85;;;2.80;99.90;;;;;;5052685;28;20031;-81
2022/02/08 04:16:54;;;;;;;9.75;1.40;;;2.80;99.90;;;;;;5061043;28;20048;-81
2022/02/08 04:19:51;;;;;;;7.72;1.42;;;2.80;99.90;;;;;;5053725;28;20449;-81
2022/02/08 04:46:01;;;;;;;8.50;1.52;;;2.90;99.90;;;;;;5065201;28;20028;-83
2022/02/08 04:48:27;;;;;;;10.18;1.58;;;2.90;99.90;;;;;;5051413;28;20375;-83
2022/02/08 04:51:03;;;;;;;7.97;1.70;;;2.80;99.90;;;;;;5051860;28;20116;-82
2022/02/08 04:53:39;;;;;;;6.53;1.85;;;2.80;99.90;;;;;;5054081;28;20025;-83
2022/02/08 04:56:20;;;;;;;7.22;1.63;;;2.80;99.90;;;;;;5067756;28;20045;-80
2022/02/08 04:58:55;;;;;;;8.85;1.48;;;2.80;99.90;;;;;;5052357;28;20029;-74
2022/02/08 05:01:59;;;;;;;10.07;2.17;;;2.80;99.90;;;;;;5052630;28;20024;-82
2022/02/08 05:44:53;;;;;;;8.05;1.95;;;3.00;99.90;;;;;;5049329;28;20031;-74
2022/02/08 05:47:19;;;;;;;7.05;1.67;;;3.00;99.90;;;;;;5050718;28;20083;-83
2022/02/08 05:49:51;;;;;;;8.18;1.52;;;3.00;99.90;;;;;;5052406;28;20028;-74
2022/02/08 05:52:34;;;;;;;12.45;2.15;;;3.00;99.90;;;;;;5050756;28;20039;-81
2022/02/08 05:54:59;;;;;;;8.68;1.40;;;3.00;99.90;;;;;;5049568;28;20037;-87
2022/02/08 05:57:26;;;;;;;8.65;1.35;;;3.00;99.90;;;;;;5050461;28;20411;-80
2022/02/08 05:59:52;;;;;;;9.00;1.77;;;3.10;99.90;;;;;;5048874;28;20394;-83
2022/02/08 06:02:19;;;;;;;13.07;1.67;;;3.10;99.90;;;;;;5050147;28;20061;-82
2022/02/08 06:04:45;;;;;;;8.90;1.83;;;3.10;99.90;;;;;;5050358;28;20040;-75
2022/02/08 06:07:19;;;;;;;10.02;1.95;;;3.10;99.90;;;;;;5050179;28;20033;-84
2022/02/08 06:09:45;;;;;;;4.50;1.60;;;3.20;99.90;;;;;;5051226;28;20033;-82
2022/02/08 06:12:11;;;;;;;6.75;1.85;;;3.10;99.90;;;;;;5050610;28;20029;-82
2022/02/08 06:14:36;;;;;;;13.52;2.72;;;3.20;99.90;;;;;;5059842;28;20029;-84
2022/02/08 06:17:02;;;;;;;9.82;2.00;;;3.20;99.90;;;;;;5070641;28;20032;-84
2022/02/08 06:19:28;;;;;;;10.15;1.90;;;3.20;99.90;;;;;;5056001;28;20033;-83
2022/02/08 06:21:53;;;;;;;13.55;2.90;;;3.10;99.90;;;;;;5051386;28;20028;-83
2022/02/08 06:24:19;;;;;;;9.20;1.48;;;3.10;99.90;;;;;;5053751;28;20075;-84
2022/02/08 06:26:45;;;;;;;12.25;2.55;;;3.10;99.90;;;;;;5064459;28;20025;-82
2022/02/08 06:29:22;;;;;;;8.38;1.77;;;3.10;99.90;;;;;;5072197;28;20116;-84
2022/02/08 06:31:47;;;;;;;10.73;1.80;;;3.00;99.90;;;;;;5071420;28;20021;-74
2022/02/08 06:34:18;;;;;;;18.95;2.03;;;3.10;99.90;;;;;;5061953;28;20074;-78
2022/02/08 06:36:44;;;;;;;14.25;2.10;;;3.10;99.90;;;;;;5064221;28;20063;-81
2022/02/08 06:39:09;;;;;;;11.18;3.40;;;3.10;99.90;;;;;;5068345;28;20375;-77
2022/02/08 06:41:35;;;;;;;11.45;2.88;;;3.10;99.90;;;;;;5061764;28;20475;-82
2022/02/08 06:44:02;;;;;;;9.77;2.30;;;3.20;99.90;;;;;;5050042;28;20134;-78
2022/02/08 06:46:28;;;;;;;5.45;1.52;;;3.20;99.90;;;;;;5051371;28;20033;-77
2022/02/08 06:48:55;;;;;;;8.90;1.83;;;3.30;99.90;;;;;;5050751;28;20029;-78
2022/02/08 06:51:21;;;;;;;12.05;1.60;;;3.30;99.90;;;;;;5061908;28;20032;-83
2022/02/08 06:53:46;;;;;;;8.43;1.63;;;3.40;99.90;;;;;;5059729;28;20037;-73
2022/02/08 06:56:12;;;;;;;8.60;1.85;;;3.40;99.90;;;;;;5051332;28;20049;-80
2022/02/08 06:58:57;;;;;;;11.43;2.08;;;3.30;99.90;;;;;;5051326;28;20033;-74
2022/02/08 07:01:27;;;;;;;9.77;1.50;;;3.30;99.90;;;;;;5051325;28;20025;-83
2022/02/08 07:03:53;;;;;;;;;;;3.40;99.90;;;;;;5050176;28;20037;-74
2022/02/08 07:06:20;;;;;;;13.05;2.10;;;3.30;99.90;;;;;;5051272;28;19931;-90
2022/02/08 07:08:46;;;;;;;6.88;1.58;;;3.30;99.90;;;;;;5051373;28;20087;-86
2022/02/08 07:11:16;;;;;;;8.35;1.55;;;3.30;99.90;;;;;;5050382;28;20461;-84
2022/02/08 07:13:43;;;;;;;11.02;1.20;;;3.40;99.90;;;;;;5053884;28;20029;-84
2022/02/08 07:16:10;;;;;;;11.23;1.90;;;3.50;99.90;;;;;;5051042;28;20795;-79
2022/02/08 07:18:36;;;;;;;13.13;1.88;;;3.50;99.90;;;;;;5055191;28;20037;-84
2022/02/08 07:21:01;;;;;;;9.15;2.33;;;3.60;99.90;;;;;;5055904;28;20435;-84
2022/02/08 07:23:27;;;;;;;4.80;1.42;;;3.60;99.90;;;;;;5048828;28;20037;-84
2022/02/08 07:25:54;;;;;;;13.13;1.73;;;3.70;99.90;;;;;;5055240;28;20466;-83
2022/02/08 07:28:20;;;;;;;14.30;1.92;;;3.80;99.90;;;;;;5055446;28;20033;-85
2022/02/08 07:30:46;;;;;;;14.05;2.55;;;3.90;99.90;;;;;;5053957;28;20029;-84
2022/02/08 07:33:12;;;;;;;9.02;1.77;;;4.00;99.90;;;;;;5053181;28;20037;-84
2022/02/08 07:35:58;;;;;;;8.60;1.73;;;4.10;99.90;;;;;;5053616;28;20098;-84
2022/02/08 07:38:29;;;;;;;6.72;1.15;;;4.10;99.90;;;;;;5054268;28;20378;-85
2022/02/08 07:43:21;;;;;;;7.65;1.80;;;4.20;99.90;;;;;;5053595;28;20090;-84
2022/02/08 07:45:48;;;;;;;10.35;2.38;;;4.30;99.90;;;;;;5055114;28;20056;-84
2022/02/08 07:48:14;;;;;;;10.00;2.15;;;4.40;99.90;;;;;;5073126;28;20082;-83
2022/02/08 07:50:41;;;;;;;9.65;1.55;;;4.40;99.90;;;;;;5073937;28;20029;-83
2022/02/08 07:53:09;;;;;;;10.18;2.08;;;4.50;99.90;;;;;;5072855;28;20032;-82
2022/02/08 07:55:35;;;;;;;10.70;1.77;;;4.60;99.90;;;;;;5070801;28;20021;-83
2022/02/08 07:58:01;;;;;;;9.77;1.63;;;4.60;99.90;;;;;;5052073;28;20032;-83
2022/02/08 08:00:27;;;;;;;6.20;1.48;;;4.60;99.90;;;;;;5053541;28;20112;-83
2022/02/08 08:02:53;;;;;;;8.07;1.83;;;4.60;99.90;;;;;;5053041;28;20040;-77
2022/02/08 08:05:19;;;;;;;14.38;2.15;;;4.60;99.90;;;;;;5051896;28;20099;-83
2022/02/08 08:07:45;;;;;;;13.43;2.10;;;4.70;99.90;;;;;;5052426;28;20533;-82
2022/02/08 08:10:17;;;;;;;11.52;2.15;;;4.80;99.90;;;;;;5052888;28;20024;-83
2022/02/08 08:12:48;;;;;;;16.05;1.83;;;4.90;99.90;;;;;;5053619;28;20028;-83
2022/02/08 08:15:35;;;;;;;12.40;2.13;;;4.90;99.90;;;;;;5051990;28;20148;-83
2022/02/08 08:18:17;;;;;;;6.57;1.40;;;4.90;99.90;;;;;;5058875;28;20041;-83
2022/02/08 08:20:43;;;;;;;7.75;1.58;;;5.00;99.90;;;;;;5052790;28;20068;-83
2022/02/08 08:23:08;;;;;;;13.35;2.15;;;5.10;99.90;;;;;;5051542;28;20068;-84
2022/02/08 08:25:34;;;;;;;11.40;3.17;;;5.10;99.90;;;;;;5051806;28;20029;-84
2022/02/08 08:28:00;;;;;;;13.77;2.22;;;5.20;99.90;;;;;;5052204;28;20036;-84
2022/02/08 08:30:25;;;;;;;6.28;1.70;;;5.30;99.90;;;;;;5052831;28;20099;-84
2022/02/08 08:32:52;;;;;;;11.80;2.00;;;5.40;99.90;;;;;;5052146;28;20063;-77
2022/02/08 08:35:23;;;;;;;7.68;1.80;;;5.50;99.90;;;;;;5052391;28;20070;-84
2022/02/08 08:37:51;;;;;;;10.73;1.75;;;5.50;99.90;;;;;;5053286;28;20036;-84
2022/02/08 08:40:25;;;;;;;10.27;2.00;;;5.60;99.90;;;;;;5052472;28;20040;-84
2022/02/08 08:43:12;;;;;;;8.43;1.65;;;5.70;99.90;;;;;;5052450;28;20098;-78
2022/02/08 08:51:17;;;;;;;12.60;2.22;;;5.80;99.90;;;;;;5054305;28;20532;-83
2022/02/08 08:53:46;;;;;;;9.45;2.08;;;5.70;99.90;;;;;;5055335;28;20037;-83
2022/02/08 08:56:12;;;;;;;11.57;1.67;;;5.60;99.90;;;;;;5051388;28;20084;-81
2022/02/08 08:58:43;;;;;;;11.95;1.88;;;5.60;99.90;;;;;;5052766;28;20415;-82
2022/02/08 09:01:10;;;;;;;6.00;1.40;;;5.60;99.90;;;;;;5051248;28;20029;-82
2022/02/08 09:03:36;;;;;;;11.10;2.05;;;5.60;99.90;;;;;;5052246;28;20121;-82
2022/02/08 09:06:01;;;;;;;11.23;2.00;;;5.60;99.90;;;;;;5050461;28;20513;-82
2022/02/08 09:08:30;;;;;;;8.70;1.60;;;5.60;99.90;;;;;;5052635;28;20106;-82
2022/02/08 09:11:04;;;;;;;9.65;1.70;;;5.60;99.90;;;;;;5051545;28;20090;-76
2022/02/08 09:13:40;;;;;;;13.60;1.88;;;5.70;99.90;;;;;;5052278;28;20041;-82
2022/02/08 09:16:20;;;;;;;12.15;2.35;;;5.70;99.90;;;;;;5056196;28;20035;-82
2022/02/08 09:27:20;;;;;;;8.50;1.73;;;6.10;99.90;;;;;;5031596;28;20035;-77
2022/02/08 09:29:47;;;;;;;10.73;1.77;;;6.10;99.90;;;;;;5032727;28;20108;-81
2022/02/08 09:32:41;;;;;;;14.82;2.03;;;6.20;99.90;;;;;;5049274;28;20056;-82
2022/02/08 09:35:08;;;;;;;11.07;2.00;;;6.30;99.90;;;;;;5050287;28;20434;-82
2022/02/08 09:37:35;;;;;;;13.20;2.33;;;6.30;99.90;;;;;;5052012;28;20112;-82
2022/02/08 09:40:03;;;;;;;12.82;1.50;;;6.50;99.90;;;;;;5050995;28;20386;-81
2022/02/08 09:42:29;;;;;;;13.75;2.55;;;6.50;99.90;;;;;;5049602;28;20450;-82
2022/02/08 09:44:55;;;;;;;11.63;3.05;;;6.50;99.90;;;;;;5054789;28;20040;-78
2022/02/08 09:47:31;;;;;;;14.90;1.83;;;6.50;99.90;;;;;;5066745;28;20024;-82
2022/02/08 09:50:06;;;;;;;9.45;2.15;;;6.60;99.90;;;;;;5064067;28;20075;-76
2022/02/08 09:52:31;;;;;;;7.18;1.63;;;6.70;99.90;;;;;;5051038;28;20031;-82
2022/02/08 09:54:57;;;;;;;8.77;2.10;;;6.80;99.90;;;;;;5049950;28;20032;-76
2022/02/08 09:57:23;;;;;;;9.77;1.95;;;6.90;99.90;;;;;;5051141;28;20470;-82
2022/02/08 09:59:49;;;;;;;11.27;1.90;;;6.90;99.90;;;;;;5051159;28;20468;-82
2022/02/08 10:02:20;;;;;;;15.07;2.60;;;7.00;99.90;;;;;;5049629;28;20124;-81
2022/02/08 10:04:46;;;;;;;13.00;2.10;;;7.10;99.90;;;;;;5051215;28;20119;-82
2022/02/08 10:07:13;;;;;;;9.15;1.17;;;7.20;99.90;;;;;;5050306;28;20107;-81
2022/02/08 10:09:39;;;;;;;14.65;2.25;;;;;;;;;;5051472;28;20029;-82
2022/02/08 10:12:06;;;;;;;5.43;1.48;;;7.40;99.00;;;;;;5050239;28;20032;-82
2022/02/08 10:22:32;;;;;;;8.57;1.43;;;7.80;98.20;;;;;;5050749;28;20037;-82
2022/02/08 10:25:06;;;;;;;10.35;1.70;;;8.00;97.80;;;;;;5050536;28;20029;-76
2022/02/08 10:28:00;;;;;;;5.15;1.83;;;8.20;96.50;;;;;;5050903;28;20377;-82
2022/02/08 10:38:24;;;;;;;7.75;1.50;;;8.40;95.80;;;;;;5050625;28;20045;-82
2022/02/08 10:40:51;;;;;;;3.75;1.23;;;8.60;96.90;;;;;;5050433;28;20063;-81
2022/02/08 10:43:18;;;;;;;10.77;2.25;;;8.80;95.00;;;;;;5049773;28;20643;-82
2022/02/08 10:45:44;;;;;;;7.72;1.42;;;9.00;95.10;;;;;;5052455;28;20029;-82
2022/02/08 10:48:18;;;;;;;7.70;1.88;;;9.00;94.60;;;;;;5067314;28;20074;-82
2022/02/08 10:50:53;;;;;;;7.05;1.45;;;8.90;95.30;;;;;;5055485;28;20389;-82
2022/02/08 10:53:21;;;;;;;7.45;2.17;;;8.90;94.70;;;;;;5053923;28;20446;-82
2022/02/08 10:56:05;;;;;;;9.43;1.55;;;8.70;95.40;;;;;;5054706;28;20049;-83
2022/02/08 10:58:43;;;;;;;5.85;1.15;;;8.70;96.00;;;;;;5055393;28;20450;-83
2022/02/08 11:01:20;;;;;;;7.68;1.67;;;8.60;95.80;;;;;;5053936;28;20112;-82
2022/02/08 11:04:06;;;;;;;7.10;1.75;;;8.50;95.50;;;;;;5054987;28;20324;-83
2022/02/08 11:07:09;;;;;;;12.43;2.10;;;8.60;95.60;;;;;;5054319;28;20049;-83
2022/02/08 11:09:49;;;;;;;9.55;1.83;;;8.60;95.70;;;;;;5053763;28;20032;-83
2022/02/08 11:12:36;;;;;;;6.90;1.50;;;8.80;95.30;;;;;;5053738;28;20489;-83
2022/02/08 11:15:25;;;;;;;8.07;1.73;;;8.90;95.70;;;;;;5053432;28;20429;-82
2022/02/08 11:20:41;;;;;;;5.70;1.30;;;9.70;94.00;;;;;;5066325;28;20099;-83
2022/02/08 11:23:34;;;;;;;7.72;1.85;;;10.10;93.00;;;;;;5053247;28;20450;-83
2022/02/08 11:26:00;;;;;;;8.88;1.38;;;10.30;92.30;;;;;;5053198;28;20060;-76
2022/02/08 11:28:36;;;;;;;7.00;1.60;;;10.40;91.00;;;;;;5035966;28;20029;-82
2022/02/08 11:34:04;;;;;;;7.70;2.03;;;10.50;90.90;;;;;;5053940;28;20037;-82
2022/02/08 11:47:28;;;;;;;8.05;1.45;;;10.60;91.60;;;;;;5066690;28;20029;-83
2022/02/08 11:55:23;;;;;;;5.38;1.45;;;10.80;92.50;;;;;;5052836;28;20040;-82
2022/02/08 11:58:30;;;;;;;6.72;1.50;;;10.90;93.50;;;;;;5033672;28;20049;-82
2022/02/08 12:00:57;;;;;;;3.85;1.50;;;11.10;94.80;;;;;;5032525;28;20045;-82
2022/02/08 12:03:54;;;;;;;4.85;1.38;;;11.40;94.80;;;;;;5045649;28;20481;-82
2022/02/08 12:09:09;;;;;;;2.33;0.82;;;11.70;95.30;;;;;;5062457;28;20045;-81
2022/02/08 12:31:21;;;;;;;4.00;0.70;;;11.80;98.20;;;;;;5053001;28;20139;-82
2022/02/08 12:36:33;;;;;;;3.15;1.00;;;11.70;98.20;;;;;;5052804;28;20039;-82
2022/02/08 12:50:45;;;;;;;4.13;0.98;;;12.10;98.30;;;;;;5071991;28;20056;-83
2022/02/08 12:53:39;;;;;;;5.88;1.10;;;12.30;97.20;;;;;;5067626;28;20041;-76
2022/02/08 12:56:12;;;;;;;4.50;1.10;;;12.40;96.80;;;;;;5051869;28;20052;-82
2022/02/08 12:59:11;;;;;;;3.03;1.13;;;12.40;96.20;;;;;;5052805;28;20036;-82
2022/02/08 13:04:25;;;;;;;5.65;1.02;;;12.10;96.90;;;;;;5051327;28;20355;-77
2022/02/08 13:17:24;;;;;;;4.80;0.77;;;12.00;97.90;;;;;;5051516;28;20044;-83
2022/02/08 14:02:00;;;;;;;6.63;1.00;;;10.70;99.90;;;;;;5050620;28;20052;-83
2022/02/08 14:07:03;;;;;;;4.88;1.02;;;10.60;99.90;;;;;;5050921;28;20112;-84
2022/02/08 14:19:50;;;;;;;5.53;1.63;;;10.30;99.90;;;;;;5031896;28;20435;-82
2022/02/08 14:22:34;;;;;;;3.67;0.90;;;10.30;99.90;;;;;;5047823;28;20524;-82
2022/02/08 14:30:23;;;;;;;4.25;0.90;;;10.30;99.90;;;;;;5054990;28;20036;-82
2022/02/08 14:33:02;;;;;;;7.88;0.80;;;10.30;99.90;;;;;;5049121;28;20025;-81
2022/02/08 15:06:01;;;;;;;2.88;0.80;;;9.90;99.90;;;;;;5052424;28;20039;-82
2022/02/08 15:08:30;;;;;;;8.90;1.88;;;9.80;99.90;;;;;;5051588;28;20060;-83
2022/02/08 15:11:04;;;;;;;4.22;0.80;;;9.80;99.90;;;;;;5062854;28;20024;-83
2022/02/08 15:13:30;;;;;;;4.82;1.05;;;9.80;99.90;;;;;;5053131;28;20029;-84
2022/02/08 15:18:58;;;;;;;5.15;0.80;;;9.70;99.90;;;;;;5002653;28;20045;-83
2022/02/08 15:21:31;;;;;;;9.88;1.25;;;9.70;99.90;;;;;;5033997;28;20168;-82
2022/02/08 15:23:56;;;;;;;3.15;0.82;;;9.70;99.90;;;;;;5041093;28;20073;-79
2022/02/08 15:26:22;;;;;;;5.70;1.30;;;9.60;99.90;;;;;;5051692;28;20076;-78
2022/02/08 15:28:49;;;;;;;2.78;0.90;;;9.50;99.90;;;;;;5049920;28;20025;-84
2022/02/08 15:31:17;;;;;;;2.75;0.80;;;9.50;99.90;;;;;;5031142;28;20091;-79
2022/02/08 15:33:43;;;;;;;2.38;0.85;;;9.40;99.90;;;;;;5032291;28;20406;-77
2022/02/08 15:36:09;;;;;;;4.43;0.77;;;9.40;99.90;;;;;;5033812;28;20029;-77
2022/02/08 15:38:37;;;;;;;3.50;0.82;;;9.30;99.90;;;;;;5040303;28;20099;-74
2022/02/08 15:41:03;;;;;;;4.78;0.88;;;9.30;99.90;;;;;;5054367;28;20454;-75
2022/02/08 15:43:30;;;;;;;2.13;0.57;;;9.30;99.90;;;;;;5053620;28;20025;-81
2022/02/08 15:46:01;;;;;;;3.25;0.75;;;9.30;99.90;;;;;;5047268;28;20029;-77
2022/02/08 15:48:27;;;;;;;4.40;1.30;;;9.30;99.90;;;;;;5063460;28;20041;-81
2022/02/08 15:51:02;;;;;;;5.45;0.80;;;9.20;99.90;;;;;;5053594;28;20032;-78
2022/02/08 16:08:50;;;;;;;4.75;1.10;;;8.90;99.90;;;;;;5053937;28;20037;-77
2022/02/08 16:19:11;;;;;;;2.22;0.88;;;8.50;99.90;;;;;;5053720;28;20029;-73
2022/02/08 16:22:15;;;;;;;5.30;0.98;;;8.50;99.90;;;;;;5053711;28;20017;-70
2022/02/08 16:33:07;;;;;;;4.22;0.80;;;8.30;99.90;;;;;;5050839;28;20158;-72
2022/02/08 16:48:02;;;;;;;5.03;1.00;;;8.10;99.90;;;;;;5054803;28;20127;-73
2022/02/08 16:49:39;;;;;;;3.30;1.02;;;8.20;99.90;;;;;;5069084;28;20037;-74
2022/02/08 16:57:38;;;;;;;2.42;0.80;;;8.20;99.90;;;;;;5034247;28;20063;-71
2022/02/08 17:00:06;;;;;;;2.20;0.95;;;8.20;99.90;;;;;;5033204;28;20032;-73
2022/02/08 17:02:36;;;;;;;3.20;1.10;;;8.20;99.90;;;;;;5050148;28;20086;-73
2022/02/08 17:05:03;;;;;;;4.50;1.00;;;8.10;99.90;;;;;;5052254;28;20033;-73
2022/02/08 17:07:35;;;;;;;2.63;1.23;;;8.10;99.90;;;;;;5051595;28;20616;-72
2022/02/08 17:10:03;;;;;;;4.10;1.65;;;8.10;99.90;;;;;;5052718;28;20079;-81
2022/02/08 17:12:40;;;;;;;6.07;1.50;;;8.10;99.90;;;;;;5052181;28;20033;-75
2022/02/08 17:38:18;;;;;;;6.72;1.45;;;8.00;99.90;;;;;;5052286;28;20025;-77
2022/02/08 17:47:44;;;;;;;4.20;1.15;;;7.90;99.90;;;;;;5052376;28;20025;-75
2022/02/08 17:50:14;;;;;;;4.57;1.98;;;7.90;99.90;;;;;;5051795;28;20029;-74
2022/02/08 17:52:41;;;;;;;2.50;1.00;;;7.80;99.90;;;;;;5052542;28;20040;-79
2022/02/08 17:55:09;;;;;;;6.88;2.05;;;7.80;99.90;;;;;;5062209;28;20032;-79
2022/02/08 17:57:35;;;;;;;2.53;1.27;;;7.80;99.90;;;;;;5071357;28;20044;-77
2022/02/08 18:00:01;;;;;;;3.08;1.15;;;7.80;99.90;;;;;;5071747;28;20031;-75
2022/02/08 18:02:27;;;;;;;5.85;1.42;;;7.80;99.90;;;;;;5071391;28;20029;-82
2022/02/08 18:04:57;;;;;;;6.07;1.40;;;7.70;99.90;;;;;;5072157;28;20035;-77
2022/02/08 18:07:24;;;;;;;4.85;1.30;;;7.80;99.90;;;;;;5071457;28;20115;-80
2022/02/08 18:09:51;;;;;;;5.20;1.73;;;7.70;99.90;;;;;;5072189;28;20028;-76
2022/02/08 18:12:19;;;;;;;5.05;1.58;;;7.80;99.90;;;;;;5070799;28;20028;-76
2022/02/08 18:14:50;;;;;;;6.65;1.67;;;7.80;99.90;;;;;;5071882;28;20020;-77
2022/02/08 18:17:22;;;;;;;4.43;1.60;;;7.80;99.90;;;;;;5071276;28;20056;-79
2022/02/08 18:19:53;;;;;;;4.72;1.80;;;7.80;99.90;;;;;;5071628;28;20032;-84
2022/02/08 18:57:20;;;;;;;5.35;2.13;;;8.10;99.90;;;;;;5071637;28;20148;-76
2022/02/08 19:11:20;;;;;;;5.18;1.67;;;8.00;99.90;;;;;;5074469;28;20029;-73
2022/02/08 19:18:32;;;;;;;5.95;1.95;;;8.00;99.90;;;;;;5054001;28;20075;-70
2022/02/08 19:23:31;;;;;;;9.65;2.30;;;8.10;99.90;;;;;;5053713;28;20029;-71
2022/02/08 19:25:56;;;;;;;9.00;2.33;;;8.20;99.90;;;;;;5071717;28;20037;-69
2022/02/08 19:28:22;;;;;;;8.73;2.50;;;8.20;99.90;;;;;;5073403;28;20480;-70
2022/02/08 19:30:48;;;;;;;6.15;2.10;;;8.30;99.90;;;;;;5074297;28;20021;-69
2022/02/08 19:33:14;;;;;;;11.65;2.60;;;8.30;99.90;;;;;;5074550;28;20029;-70
2022/02/08 19:35:41;;;;;;;8.52;2.38;;;8.40;99.90;;;;;;5073529;28;20432;-71
2022/02/08 19:38:10;;;;;;;6.07;2.50;;;8.40;99.90;;;;;;5073547;28;20086;-71
2022/02/08 19:40:36;;;;;;;6.47;1.90;;;8.30;99.90;;;;;;5073024;28;20598;-70
2022/02/08 19:43:01;;;;;;;8.13;2.08;;;8.10;99.90;;;;;;5063666;28;20039;-69
2022/02/08 19:45:27;;;;;;;8.02;2.50;;;8.00;99.90;;;;;;5053057;28;20086;-70
2022/02/08 19:47:53;;;;;;;11.02;2.92;;;8.10;99.90;;;;;;5053905;28;20044;-72
2022/02/08 19:50:19;;;;;;;8.77;2.83;;;8.10;99.90;;;;;;5052933;28;20070;-71
2022/02/08 19:52:45;;;;;;;8.38;2.80;;;8.10;99.90;;;;;;5053882;28;20025;-72
2022/02/08 19:57:39;;;;;;;12.05;2.50;;;8.00;99.90;;;;;;5072575;28;20063;-71
2022/02/08 20:00:09;;;;;;;9.18;2.67;;;8.00;99.90;;;;;;5058126;28;20020;-69
2022/02/08 20:02:42;;;;;;;8.60;2.63;;;8.00;99.90;;;;;;5072996;28;20041;-70
2022/02/08 20:05:08;;;;;;;9.52;2.70;;;7.80;99.90;;;;;;5074131;28;20025;-70
2022/02/08 20:07:34;;;;;;;7.57;2.33;;;7.80;99.90;;;;;;5072969;28;20720;-70
2022/02/08 20:10:00;;;;;;;6.93;2.58;;;7.70;99.90;;;;;;5074019;28;20037;-71
2022/02/08 20:12:26;;;;;;;7.95;2.40;;;7.70;99.90;;;;;;5066395;28;20107;-71
2022/02/08 20:14:51;;;;;;;7.63;2.67;;;7.60;99.90;;;;;;5052490;28;20116;-71